sensor_id;sensor_type;location;lat;lon;timestamp;P1;durP1;ratioP1;P2;durP2;ratioP2
22024;SDS011;11176;51.448;6.650;2022-07-06T00:00:08;3.65;;;1.50;;
22024;SDS011;11176;51.448;6.650;2022-07-06T00:02:36;3.33;;;1.20;;
22024;SDS011;11176;51.448;6.650;2022-07-06T00:05:02;2.70;;;1.10;;
22024;SDS011;11176;51.448;6.650;2022-07-06T00:07:29;2.00;;;1.20;;
22024;SDS011;11176;51.448;6.650;2022-07-06T00:09:56;3.08;;;1.20;;
22024;SDS011;11176;51.448;6.650;2022-07-06T00:12:24;2.88;;;1.20;;
22024;SDS011;11176;51.448;6.650;2022-07-06T00:14:50;2.88;;;1.33;;
22024;SDS011;11176;51.448;6.650;2022-07-06T00:17:17;3.90;;;1.08;;
22024;SDS011;11176;51.448;6.650;2022-07-06T00:19:43;2.78;;;1.50;;
22024;SDS011;11176;51.448;6.650;2022-07-06T00:22:10;5.25;;;1.50;;
22024;SDS011;11176;51.448;6.650;2022-07-06T00:24:36;3.92;;;1.70;;
22024;SDS011;11176;51.448;6.650;2022-07-06T00:27:03;4.15;;;1.65;;
22024;SDS011;11176;51.448;6.650;2022-07-06T00:29:30;5.18;;;1.90;;
22024;SDS011;11176;51.448;6.650;2022-07-06T00:31:57;3.22;;;1.60;;
22024;SDS011;11176;51.448;6.650;2022-07-06T00:34:24;4.45;;;1.90;;
22024;SDS011;11176;51.448;6.650;2022-07-06T00:36:50;6.43;;;2.03;;
22024;SDS011;11176;51.448;6.650;2022-07-06T00:39:17;6.78;;;2.00;;
22024;SDS011;11176;51.448;6.650;2022-07-06T00:41:45;4.30;;;1.92;;
22024;SDS011;11176;51.448;6.650;2022-07-06T00:44:11;4.07;;;2.00;;
22024;SDS011;11176;51.448;6.650;2022-07-06T00:46:38;5.28;;;2.05;;
22024;SDS011;11176;51.448;6.650;2022-07-06T00:49:05;3.40;;;1.80;;
22024;SDS011;11176;51.448;6.650;2022-07-06T00:51:32;4.80;;;2.00;;
22024;SDS011;11176;51.448;6.650;2022-07-06T00:54:03;4.72;;;2.20;;
22024;SDS011;11176;51.448;6.650;2022-07-06T00:56:31;5.78;;;2.08;;
22024;SDS011;11176;51.448;6.650;2022-07-06T00:58:59;5.18;;;2.50;;
22024;SDS011;11176;51.448;6.650;2022-07-06T01:01:26;4.95;;;2.20;;
22024;SDS011;11176;51.448;6.650;2022-07-06T01:03:53;6.05;;;2.15;;
22024;SDS011;11176;51.448;6.650;2022-07-06T01:06:20;4.55;;;2.30;;
22024;SDS011;11176;51.448;6.650;2022-07-06T01:08:46;6.82;;;2.50;;
22024;SDS011;11176;51.448;6.650;2022-07-06T01:11:13;4.90;;;2.35;;
22024;SDS011;11176;51.448;6.650;2022-07-06T01:13:40;6.10;;;2.33;;
22024;SDS011;11176;51.448;6.650;2022-07-06T01:16:07;4.15;;;1.95;;
22024;SDS011;11176;51.448;6.650;2022-07-06T01:18:37;4.90;;;1.98;;
22024;SDS011;11176;51.448;6.650;2022-07-06T01:21:05;6.72;;;2.63;;
22024;SDS011;11176;51.448;6.650;2022-07-06T01:23:32;4.57;;;2.88;;
22024;SDS011;11176;51.448;6.650;2022-07-06T01:26:04;5.47;;;2.30;;
22024;SDS011;11176;51.448;6.650;2022-07-06T01:28:30;4.65;;;2.08;;
22024;SDS011;11176;51.448;6.650;2022-07-06T01:30:57;4.47;;;1.90;;
22024;SDS011;11176;51.448;6.650;2022-07-06T01:33:23;4.38;;;2.17;;
22024;SDS011;11176;51.448;6.650;2022-07-06T01:35:50;5.15;;;2.13;;
22024;SDS011;11176;51.448;6.650;2022-07-06T01:38:16;5.30;;;2.20;;
22024;SDS011;11176;51.448;6.650;2022-07-06T01:40:43;4.63;;;2.50;;
22024;SDS011;11176;51.448;6.650;2022-07-06T01:43:10;4.15;;;1.67;;
22024;SDS011;11176;51.448;6.650;2022-07-06T01:45:37;4.65;;;1.90;;
22024;SDS011;11176;51.448;6.650;2022-07-06T01:48:07;3.60;;;2.13;;
22024;SDS011;11176;51.448;6.650;2022-07-06T01:50:33;7.35;;;2.28;;
22024;SDS011;11176;51.448;6.650;2022-07-06T01:53:00;5.35;;;2.60;;
22024;SDS011;11176;51.448;6.650;2022-07-06T01:55:27;3.60;;;2.08;;
22024;SDS011;11176;51.448;6.650;2022-07-06T01:57:53;3.47;;;1.92;;
22024;SDS011;11176;51.448;6.650;2022-07-06T02:00:20;5.00;;;2.00;;
22024;SDS011;11176;51.448;6.650;2022-07-06T02:02:49;3.50;;;1.85;;
22024;SDS011;11176;51.448;6.650;2022-07-06T02:05:15;3.60;;;1.80;;
22024;SDS011;11176;51.448;6.650;2022-07-06T02:07:42;4.45;;;2.10;;
22024;SDS011;11176;51.448;6.650;2022-07-06T02:10:10;4.60;;;1.88;;
22024;SDS011;11176;51.448;6.650;2022-07-06T02:12:37;6.57;;;2.13;;
22024;SDS011;11176;51.448;6.650;2022-07-06T02:15:04;5.00;;;2.38;;
22024;SDS011;11176;51.448;6.650;2022-07-06T02:17:31;4.30;;;2.15;;
22024;SDS011;11176;51.448;6.650;2022-07-06T02:19:57;3.67;;;2.20;;
22024;SDS011;11176;51.448;6.650;2022-07-06T02:22:25;3.53;;;2.20;;
22024;SDS011;11176;51.448;6.650;2022-07-06T02:24:51;4.82;;;2.25;;
22024;SDS011;11176;51.448;6.650;2022-07-06T02:27:18;4.60;;;2.30;;
22024;SDS011;11176;51.448;6.650;2022-07-06T02:29:45;5.20;;;2.50;;
22024;SDS011;11176;51.448;6.650;2022-07-06T02:32:12;5.90;;;2.60;;
22024;SDS011;11176;51.448;6.650;2022-07-06T02:34:39;6.10;;;2.40;;
22024;SDS011;11176;51.448;6.650;2022-07-06T02:37:05;4.95;;;2.63;;
22024;SDS011;11176;51.448;6.650;2022-07-06T02:39:32;5.63;;;2.60;;
22024;SDS011;11176;51.448;6.650;2022-07-06T02:41:58;5.68;;;3.00;;
22024;SDS011;11176;51.448;6.650;2022-07-06T02:44:25;6.97;;;2.90;;
22024;SDS011;11176;51.448;6.650;2022-07-06T02:46:52;6.68;;;3.03;;
22024;SDS011;11176;51.448;6.650;2022-07-06T02:49:19;5.75;;;2.63;;
22024;SDS011;11176;51.448;6.650;2022-07-06T02:51:46;6.90;;;3.08;;
22024;SDS011;11176;51.448;6.650;2022-07-06T02:54:13;6.18;;;3.35;;
22024;SDS011;11176;51.448;6.650;2022-07-06T02:56:39;5.10;;;2.92;;
22024;SDS011;11176;51.448;6.650;2022-07-06T02:59:08;7.72;;;3.45;;
22024;SDS011;11176;51.448;6.650;2022-07-06T03:01:40;7.20;;;3.40;;
22024;SDS011;11176;51.448;6.650;2022-07-06T03:04:07;7.32;;;3.50;;
22024;SDS011;11176;51.448;6.650;2022-07-06T03:06:34;6.57;;;2.95;;
22024;SDS011;11176;51.448;6.650;2022-07-06T03:09:00;9.25;;;3.33;;
22024;SDS011;11176;51.448;6.650;2022-07-06T03:11:27;4.78;;;3.28;;
22024;SDS011;11176;51.448;6.650;2022-07-06T03:13:54;4.97;;;3.30;;
22024;SDS011;11176;51.448;6.650;2022-07-06T03:16:22;6.60;;;3.30;;
22024;SDS011;11176;51.448;6.650;2022-07-06T03:18:49;7.00;;;3.20;;
22024;SDS011;11176;51.448;6.650;2022-07-06T03:21:15;6.38;;;3.33;;
22024;SDS011;11176;51.448;6.650;2022-07-06T03:23:42;6.68;;;3.28;;
22024;SDS011;11176;51.448;6.650;2022-07-06T03:26:09;6.32;;;3.67;;
22024;SDS011;11176;51.448;6.650;2022-07-06T03:28:36;7.55;;;3.53;;
22024;SDS011;11176;51.448;6.650;2022-07-06T03:31:02;5.78;;;3.15;;
22024;SDS011;11176;51.448;6.650;2022-07-06T03:33:29;5.03;;;3.17;;
22024;SDS011;11176;51.448;6.650;2022-07-06T03:35:57;5.90;;;3.45;;
22024;SDS011;11176;51.448;6.650;2022-07-06T03:38:23;11.13;;;3.72;;
22024;SDS011;11176;51.448;6.650;2022-07-06T03:40:51;7.15;;;3.60;;
22024;SDS011;11176;51.448;6.650;2022-07-06T03:43:18;7.70;;;3.20;;
22024;SDS011;11176;51.448;6.650;2022-07-06T03:45:45;6.18;;;3.00;;
22024;SDS011;11176;51.448;6.650;2022-07-06T03:48:12;9.23;;;3.67;;
22024;SDS011;11176;51.448;6.650;2022-07-06T03:50:40;4.60;;;3.17;;
22024;SDS011;11176;51.448;6.650;2022-07-06T03:53:08;5.35;;;2.85;;
22024;SDS011;11176;51.448;6.650;2022-07-06T03:55:35;4.78;;;3.20;;
22024;SDS011;11176;51.448;6.650;2022-07-06T03:58:05;6.95;;;3.00;;
22024;SDS011;11176;51.448;6.650;2022-07-06T04:00:34;5.45;;;2.83;;
22024;SDS011;11176;51.448;6.650;2022-07-06T04:03:04;6.88;;;3.55;;
22024;SDS011;11176;51.448;6.650;2022-07-06T04:05:37;10.10;;;3.42;;
22024;SDS011;11176;51.448;6.650;2022-07-06T04:08:04;6.93;;;3.50;;
22024;SDS011;11176;51.448;6.650;2022-07-06T04:10:37;7.57;;;3.40;;
22024;SDS011;11176;51.448;6.650;2022-07-06T04:13:03;6.82;;;3.20;;
22024;SDS011;11176;51.448;6.650;2022-07-06T04:15:30;5.72;;;3.40;;
22024;SDS011;11176;51.448;6.650;2022-07-06T04:17:58;7.47;;;3.10;;
22024;SDS011;11176;51.448;6.650;2022-07-06T04:20:34;8.43;;;3.67;;
22024;SDS011;11176;51.448;6.650;2022-07-06T04:23:01;5.65;;;3.08;;
22024;SDS011;11176;51.448;6.650;2022-07-06T04:25:29;7.32;;;3.22;;
22024;SDS011;11176;51.448;6.650;2022-07-06T04:27:58;5.72;;;3.17;;
22024;SDS011;11176;51.448;6.650;2022-07-06T04:30:27;7.93;;;2.70;;
22024;SDS011;11176;51.448;6.650;2022-07-06T04:32:54;7.25;;;3.03;;
22024;SDS011;11176;51.448;6.650;2022-07-06T04:35:24;8.70;;;3.10;;
22024;SDS011;11176;51.448;6.650;2022-07-06T04:37:52;10.15;;;3.28;;
22024;SDS011;11176;51.448;6.650;2022-07-06T04:40:20;8.55;;;3.53;;
22024;SDS011;11176;51.448;6.650;2022-07-06T04:42:49;6.68;;;3.25;;
22024;SDS011;11176;51.448;6.650;2022-07-06T04:45:17;7.32;;;3.30;;
22024;SDS011;11176;51.448;6.650;2022-07-06T04:47:44;8.70;;;3.30;;
22024;SDS011;11176;51.448;6.650;2022-07-06T04:50:12;6.30;;;2.65;;
22024;SDS011;11176;51.448;6.650;2022-07-06T04:52:39;6.30;;;3.00;;
22024;SDS011;11176;51.448;6.650;2022-07-06T04:55:06;6.03;;;2.80;;
22024;SDS011;11176;51.448;6.650;2022-07-06T04:57:35;5.38;;;2.63;;
22024;SDS011;11176;51.448;6.650;2022-07-06T05:00:03;7.65;;;3.15;;
22024;SDS011;11176;51.448;6.650;2022-07-06T05:02:31;5.30;;;2.63;;
22024;SDS011;11176;51.448;6.650;2022-07-06T05:04:58;7.05;;;2.67;;
22024;SDS011;11176;51.448;6.650;2022-07-06T05:07:25;5.40;;;2.97;;
22024;SDS011;11176;51.448;6.650;2022-07-06T05:09:55;8.15;;;3.10;;
22024;SDS011;11176;51.448;6.650;2022-07-06T05:12:22;8.38;;;3.17;;
22024;SDS011;11176;51.448;6.650;2022-07-06T05:14:49;5.88;;;2.95;;
22024;SDS011;11176;51.448;6.650;2022-07-06T05:17:17;6.20;;;3.03;;
22024;SDS011;11176;51.448;6.650;2022-07-06T05:19:44;6.93;;;2.50;;
22024;SDS011;11176;51.448;6.650;2022-07-06T05:22:10;5.82;;;2.80;;
22024;SDS011;11176;51.448;6.650;2022-07-06T05:24:37;7.60;;;2.58;;
22024;SDS011;11176;51.448;6.650;2022-07-06T05:27:04;5.03;;;2.60;;
22024;SDS011;11176;51.448;6.650;2022-07-06T05:29:30;5.38;;;2.50;;
22024;SDS011;11176;51.448;6.650;2022-07-06T05:31:57;5.38;;;3.00;;
22024;SDS011;11176;51.448;6.650;2022-07-06T05:34:23;5.93;;;2.58;;
22024;SDS011;11176;51.448;6.650;2022-07-06T05:36:50;4.18;;;2.63;;
22024;SDS011;11176;51.448;6.650;2022-07-06T05:39:17;6.72;;;2.58;;
22024;SDS011;11176;51.448;6.650;2022-07-06T05:41:46;7.20;;;2.78;;
22024;SDS011;11176;51.448;6.650;2022-07-06T05:44:13;7.38;;;2.45;;
22024;SDS011;11176;51.448;6.650;2022-07-06T05:46:40;5.47;;;2.33;;
22024;SDS011;11176;51.448;6.650;2022-07-06T05:49:07;6.97;;;2.70;;
22024;SDS011;11176;51.448;6.650;2022-07-06T05:51:53;4.90;;;2.70;;
22024;SDS011;11176;51.448;6.650;2022-07-06T05:54:19;5.25;;;2.42;;
22024;SDS011;11176;51.448;6.650;2022-07-06T05:56:47;10.10;;;2.28;;
22024;SDS011;11176;51.448;6.650;2022-07-06T05:59:14;7.30;;;2.00;;
22024;SDS011;11176;51.448;6.650;2022-07-06T06:01:41;4.15;;;2.00;;
22024;SDS011;11176;51.448;6.650;2022-07-06T06:04:12;4.78;;;2.38;;
22024;SDS011;11176;51.448;6.650;2022-07-06T06:06:38;4.15;;;1.95;;
22024;SDS011;11176;51.448;6.650;2022-07-06T06:09:05;5.32;;;1.90;;
22024;SDS011;11176;51.448;6.650;2022-07-06T06:11:31;5.15;;;2.03;;
22024;SDS011;11176;51.448;6.650;2022-07-06T06:13:58;4.95;;;2.58;;
22024;SDS011;11176;51.448;6.650;2022-07-06T06:16:24;4.47;;;1.67;;
22024;SDS011;11176;51.448;6.650;2022-07-06T06:18:51;4.78;;;2.30;;
22024;SDS011;11176;51.448;6.650;2022-07-06T06:21:18;3.95;;;1.85;;
22024;SDS011;11176;51.448;6.650;2022-07-06T06:23:44;7.65;;;2.53;;
22024;SDS011;11176;51.448;6.650;2022-07-06T06:26:11;5.05;;;1.70;;
22024;SDS011;11176;51.448;6.650;2022-07-06T06:28:37;5.15;;;1.85;;
22024;SDS011;11176;51.448;6.650;2022-07-06T06:31:04;6.97;;;2.30;;
22024;SDS011;11176;51.448;6.650;2022-07-06T06:33:30;3.53;;;1.75;;
22024;SDS011;11176;51.448;6.650;2022-07-06T06:35:57;5.00;;;2.13;;
22024;SDS011;11176;51.448;6.650;2022-07-06T06:38:23;4.85;;;1.80;;
22024;SDS011;11176;51.448;6.650;2022-07-06T06:40:54;3.00;;;1.23;;
22024;SDS011;11176;51.448;6.650;2022-07-06T06:43:21;4.13;;;1.63;;
22024;SDS011;11176;51.448;6.650;2022-07-06T06:45:59;3.42;;;1.48;;
22024;SDS011;11176;51.448;6.650;2022-07-06T06:48:25;4.05;;;2.08;;
22024;SDS011;11176;51.448;6.650;2022-07-06T06:50:52;3.97;;;1.27;;
22024;SDS011;11176;51.448;6.650;2022-07-06T06:53:19;4.85;;;1.60;;
22024;SDS011;11176;51.448;6.650;2022-07-06T06:55:45;4.47;;;1.50;;
22024;SDS011;11176;51.448;6.650;2022-07-06T06:58:12;3.17;;;1.45;;
22024;SDS011;11176;51.448;6.650;2022-07-06T07:00:38;3.47;;;1.20;;
22024;SDS011;11176;51.448;6.650;2022-07-06T07:03:05;3.67;;;1.55;;
22024;SDS011;11176;51.448;6.650;2022-07-06T07:05:31;6.47;;;1.67;;
22024;SDS011;11176;51.448;6.650;2022-07-06T07:07:58;4.78;;;1.38;;
22024;SDS011;11176;51.448;6.650;2022-07-06T07:10:30;6.32;;;1.92;;
22024;SDS011;11176;51.448;6.650;2022-07-06T07:12:58;4.85;;;1.52;;
22024;SDS011;11176;51.448;6.650;2022-07-06T07:15:24;7.38;;;1.60;;
22024;SDS011;11176;51.448;6.650;2022-07-06T07:17:51;8.05;;;1.80;;
22024;SDS011;11176;51.448;6.650;2022-07-06T07:20:18;7.00;;;1.40;;
22024;SDS011;11176;51.448;6.650;2022-07-06T07:22:44;5.13;;;1.35;;
22024;SDS011;11176;51.448;6.650;2022-07-06T07:25:11;2.00;;;1.30;;
22024;SDS011;11176;51.448;6.650;2022-07-06T07:27:37;3.50;;;1.27;;
22024;SDS011;11176;51.448;6.650;2022-07-06T07:30:04;4.60;;;1.00;;
22024;SDS011;11176;51.448;6.650;2022-07-06T07:32:31;3.50;;;1.30;;
22024;SDS011;11176;51.448;6.650;2022-07-06T07:34:58;3.28;;;1.33;;
22024;SDS011;11176;51.448;6.650;2022-07-06T07:37:24;6.75;;;1.10;;
22024;SDS011;11176;51.448;6.650;2022-07-06T07:39:51;4.65;;;1.05;;
22024;SDS011;11176;51.448;6.650;2022-07-06T07:42:18;3.22;;;0.90;;
22024;SDS011;11176;51.448;6.650;2022-07-06T07:44:44;2.63;;;0.70;;
22024;SDS011;11176;51.448;6.650;2022-07-06T07:47:11;2.60;;;0.82;;
22024;SDS011;11176;51.448;6.650;2022-07-06T07:49:37;2.83;;;0.80;;
22024;SDS011;11176;51.448;6.650;2022-07-06T07:52:04;3.58;;;0.70;;
22024;SDS011;11176;51.448;6.650;2022-07-06T07:54:31;3.80;;;1.15;;
22024;SDS011;11176;51.448;6.650;2022-07-06T07:56:57;2.65;;;0.60;;
22024;SDS011;11176;51.448;6.650;2022-07-06T07:59:24;3.28;;;0.60;;
22024;SDS011;11176;51.448;6.650;2022-07-06T08:01:51;4.18;;;0.95;;
22024;SDS011;11176;51.448;6.650;2022-07-06T08:04:18;2.88;;;1.08;;
22024;SDS011;11176;51.448;6.650;2022-07-06T08:06:44;6.38;;;0.93;;
22024;SDS011;11176;51.448;6.650;2022-07-06T08:09:11;2.53;;;0.80;;
22024;SDS011;11176;51.448;6.650;2022-07-06T08:11:38;3.72;;;0.80;;
22024;SDS011;11176;51.448;6.650;2022-07-06T08:14:05;5.03;;;0.90;;
22024;SDS011;11176;51.448;6.650;2022-07-06T08:16:32;1.58;;;0.63;;
22024;SDS011;11176;51.448;6.650;2022-07-06T08:18:58;2.92;;;0.80;;
22024;SDS011;11176;51.448;6.650;2022-07-06T08:21:25;1.63;;;0.70;;
22024;SDS011;11176;51.448;6.650;2022-07-06T08:23:53;4.13;;;0.68;;
22024;SDS011;11176;51.448;6.650;2022-07-06T08:26:21;2.40;;;0.50;;
22024;SDS011;11176;51.448;6.650;2022-07-06T08:28:47;2.70;;;0.68;;
22024;SDS011;11176;51.448;6.650;2022-07-06T08:31:14;3.20;;;0.68;;
22024;SDS011;11176;51.448;6.650;2022-07-06T08:34:01;2.28;;;0.70;;
22024;SDS011;11176;51.448;6.650;2022-07-06T08:36:28;2.67;;;0.80;;
22024;SDS011;11176;51.448;6.650;2022-07-06T08:38:55;2.88;;;0.68;;
22024;SDS011;11176;51.448;6.650;2022-07-06T08:41:23;2.08;;;0.55;;
22024;SDS011;11176;51.448;6.650;2022-07-06T08:43:51;2.17;;;0.47;;
22024;SDS011;11176;51.448;6.650;2022-07-06T08:46:19;1.98;;;0.40;;
22024;SDS011;11176;51.448;6.650;2022-07-06T08:48:47;2.63;;;0.60;;
22024;SDS011;11176;51.448;6.650;2022-07-06T08:51:16;3.15;;;0.50;;
22024;SDS011;11176;51.448;6.650;2022-07-06T08:53:44;2.55;;;0.77;;
22024;SDS011;11176;51.448;6.650;2022-07-06T08:56:11;3.80;;;0.60;;
22024;SDS011;11176;51.448;6.650;2022-07-06T08:58:39;2.17;;;0.47;;
22024;SDS011;11176;51.448;6.650;2022-07-06T09:01:10;1.75;;;0.45;;
22024;SDS011;11176;51.448;6.650;2022-07-06T09:03:41;1.20;;;0.40;;
22024;SDS011;11176;51.448;6.650;2022-07-06T09:06:08;4.80;;;0.88;;
22024;SDS011;11176;51.448;6.650;2022-07-06T09:08:35;2.67;;;0.40;;
22024;SDS011;11176;51.448;6.650;2022-07-06T09:11:03;1.27;;;0.40;;
22024;SDS011;11176;51.448;6.650;2022-07-06T09:13:30;1.65;;;0.50;;
22024;SDS011;11176;51.448;6.650;2022-07-06T09:16:08;1.15;;;0.40;;
22024;SDS011;11176;51.448;6.650;2022-07-06T09:18:59;2.67;;;0.60;;
22024;SDS011;11176;51.448;6.650;2022-07-06T09:21:26;3.38;;;0.60;;
22024;SDS011;11176;51.448;6.650;2022-07-06T09:23:57;1.25;;;0.40;;
22024;SDS011;11176;51.448;6.650;2022-07-06T09:26:25;2.35;;;0.50;;
22024;SDS011;11176;51.448;6.650;2022-07-06T09:28:52;2.95;;;0.50;;
22024;SDS011;11176;51.448;6.650;2022-07-06T09:31:22;1.52;;;0.40;;
22024;SDS011;11176;51.448;6.650;2022-07-06T09:34:05;2.38;;;0.57;;
22024;SDS011;11176;51.448;6.650;2022-07-06T09:36:50;2.45;;;0.60;;
22024;SDS011;11176;51.448;6.650;2022-07-06T09:39:18;4.78;;;0.70;;
22024;SDS011;11176;51.448;6.650;2022-07-06T09:41:48;3.25;;;0.68;;
22024;SDS011;11176;51.448;6.650;2022-07-06T09:44:29;1.75;;;0.50;;
22024;SDS011;11176;51.448;6.650;2022-07-06T09:46:59;1.80;;;0.40;;
22024;SDS011;11176;51.448;6.650;2022-07-06T09:49:27;2.50;;;0.50;;
22024;SDS011;11176;51.448;6.650;2022-07-06T09:51:56;1.90;;;0.38;;
22024;SDS011;11176;51.448;6.650;2022-07-06T09:54:30;1.05;;;0.43;;
22024;SDS011;11176;51.448;6.650;2022-07-06T09:56:59;1.70;;;0.40;;
22024;SDS011;11176;51.448;6.650;2022-07-06T09:59:34;2.67;;;0.50;;
22024;SDS011;11176;51.448;6.650;2022-07-06T10:02:05;2.13;;;0.40;;
22024;SDS011;11176;51.448;6.650;2022-07-06T10:04:33;1.80;;;0.52;;
22024;SDS011;11176;51.448;6.650;2022-07-06T10:07:01;2.78;;;0.50;;
22024;SDS011;11176;51.448;6.650;2022-07-06T10:09:29;2.20;;;0.60;;
22024;SDS011;11176;51.448;6.650;2022-07-06T10:11:59;1.83;;;0.43;;
22024;SDS011;11176;51.448;6.650;2022-07-06T10:14:30;1.83;;;0.43;;
22024;SDS011;11176;51.448;6.650;2022-07-06T10:17:00;1.02;;;0.30;;
22024;SDS011;11176;51.448;6.650;2022-07-06T10:19:28;7.25;;;0.63;;
22024;SDS011;11176;51.448;6.650;2022-07-06T10:21:56;2.15;;;0.40;;
22024;SDS011;11176;51.448;6.650;2022-07-06T10:24:27;2.10;;;0.40;;
22024;SDS011;11176;51.448;6.650;2022-07-06T10:26:55;3.17;;;0.63;;
22024;SDS011;11176;51.448;6.650;2022-07-06T10:29:22;2.20;;;0.52;;
22024;SDS011;11176;51.448;6.650;2022-07-06T10:31:50;1.15;;;0.50;;
22024;SDS011;11176;51.448;6.650;2022-07-06T10:34:18;1.02;;;0.40;;
22024;SDS011;11176;51.448;6.650;2022-07-06T10:36:49;2.03;;;0.47;;
22024;SDS011;11176;51.448;6.650;2022-07-06T10:39:31;1.35;;;0.40;;
22024;SDS011;11176;51.448;6.650;2022-07-06T10:42:38;1.15;;;0.40;;
22024;SDS011;11176;51.448;6.650;2022-07-06T10:45:06;1.48;;;0.50;;
22024;SDS011;11176;51.448;6.650;2022-07-06T10:47:34;3.50;;;0.50;;
22024;SDS011;11176;51.448;6.650;2022-07-06T10:50:02;1.55;;;0.57;;
22024;SDS011;11176;51.448;6.650;2022-07-06T10:52:49;1.77;;;0.40;;
22024;SDS011;11176;51.448;6.650;2022-07-06T10:55:30;1.95;;;0.50;;
22024;SDS011;11176;51.448;6.650;2022-07-06T10:58:02;1.88;;;0.40;;
22024;SDS011;11176;51.448;6.650;2022-07-06T11:08:46;1.60;;;0.43;;
22024;SDS011;11176;51.448;6.650;2022-07-06T11:11:13;1.75;;;0.65;;
22024;SDS011;11176;51.448;6.650;2022-07-06T11:13:54;4.78;;;0.70;;
22024;SDS011;11176;51.448;6.650;2022-07-06T11:19:17;3.25;;;0.75;;
22024;SDS011;11176;51.448;6.650;2022-07-06T11:21:46;2.53;;;0.63;;
22024;SDS011;11176;51.448;6.650;2022-07-06T11:24:18;2.42;;;0.63;;
22024;SDS011;11176;51.448;6.650;2022-07-06T11:26:51;2.28;;;0.47;;
22024;SDS011;11176;51.448;6.650;2022-07-06T11:29:19;1.92;;;0.60;;
22024;SDS011;11176;51.448;6.650;2022-07-06T11:31:48;3.22;;;0.70;;
22024;SDS011;11176;51.448;6.650;2022-07-06T11:34:23;2.70;;;0.60;;
22024;SDS011;11176;51.448;6.650;2022-07-06T11:39:28;1.73;;;0.40;;
22024;SDS011;11176;51.448;6.650;2022-07-06T11:41:57;3.15;;;0.70;;
22024;SDS011;11176;51.448;6.650;2022-07-06T11:44:24;2.15;;;0.40;;
22024;SDS011;11176;51.448;6.650;2022-07-06T11:46:51;0.90;;;0.40;;
22024;SDS011;11176;51.448;6.650;2022-07-06T11:49:18;1.80;;;0.45;;
22024;SDS011;11176;51.448;6.650;2022-07-06T11:51:46;2.60;;;0.57;;
22024;SDS011;11176;51.448;6.650;2022-07-06T11:54:13;2.85;;;0.52;;
22024;SDS011;11176;51.448;6.650;2022-07-06T11:56:55;1.63;;;0.30;;
22024;SDS011;11176;51.448;6.650;2022-07-06T11:59:25;1.02;;;0.40;;
22024;SDS011;11176;51.448;6.650;2022-07-06T12:04:30;3.33;;;0.70;;
22024;SDS011;11176;51.448;6.650;2022-07-06T12:07:01;0.80;;;0.40;;
22024;SDS011;11176;51.448;6.650;2022-07-06T12:09:33;1.27;;;0.50;;
22024;SDS011;11176;51.448;6.650;2022-07-06T12:12:00;1.65;;;0.50;;
22024;SDS011;11176;51.448;6.650;2022-07-06T12:14:32;0.98;;;0.55;;
22024;SDS011;11176;51.448;6.650;2022-07-06T12:17:04;2.00;;;0.47;;
22024;SDS011;11176;51.448;6.650;2022-07-06T12:19:40;2.50;;;0.50;;
22024;SDS011;11176;51.448;6.650;2022-07-06T12:22:07;1.98;;;0.47;;
22024;SDS011;11176;51.448;6.650;2022-07-06T12:24:35;1.08;;;0.30;;
22024;SDS011;11176;51.448;6.650;2022-07-06T12:27:14;3.17;;;0.40;;
22024;SDS011;11176;51.448;6.650;2022-07-06T12:29:40;3.75;;;0.40;;
22024;SDS011;11176;51.448;6.650;2022-07-06T12:32:13;1.65;;;0.40;;
22024;SDS011;11176;51.448;6.650;2022-07-06T12:34:41;3.55;;;0.32;;
22024;SDS011;11176;51.448;6.650;2022-07-06T12:37:09;2.75;;;0.47;;
22024;SDS011;11176;51.448;6.650;2022-07-06T12:39:45;2.03;;;0.68;;
22024;SDS011;11176;51.448;6.650;2022-07-06T12:42:14;3.47;;;0.65;;
22024;SDS011;11176;51.448;6.650;2022-07-06T12:44:46;3.97;;;0.90;;
22024;SDS011;11176;51.448;6.650;2022-07-06T12:47:17;1.52;;;0.50;;
22024;SDS011;11176;51.448;6.650;2022-07-06T12:49:46;1.30;;;0.30;;
22024;SDS011;11176;51.448;6.650;2022-07-06T12:52:13;1.40;;;0.50;;
22024;SDS011;11176;51.448;6.650;2022-07-06T12:54:42;1.42;;;0.45;;
22024;SDS011;11176;51.448;6.650;2022-07-06T12:57:13;2.45;;;0.35;;
22024;SDS011;11176;51.448;6.650;2022-07-06T12:59:42;2.60;;;0.32;;
22024;SDS011;11176;51.448;6.650;2022-07-06T13:02:26;1.52;;;0.40;;
22024;SDS011;11176;51.448;6.650;2022-07-06T13:05:16;1.48;;;0.20;;
22024;SDS011;11176;51.448;6.650;2022-07-06T13:07:46;2.05;;;0.50;;
22024;SDS011;11176;51.448;6.650;2022-07-06T13:10:15;4.57;;;0.40;;
22024;SDS011;11176;51.448;6.650;2022-07-06T13:12:42;1.55;;;0.38;;
22024;SDS011;11176;51.448;6.650;2022-07-06T13:15:10;1.42;;;0.30;;
22024;SDS011;11176;51.448;6.650;2022-07-06T13:17:37;1.77;;;0.30;;
22024;SDS011;11176;51.448;6.650;2022-07-06T13:20:04;1.40;;;0.20;;
22024;SDS011;11176;51.448;6.650;2022-07-06T13:22:34;3.28;;;0.60;;
22024;SDS011;11176;51.448;6.650;2022-07-06T13:25:01;0.93;;;0.20;;
22024;SDS011;11176;51.448;6.650;2022-07-06T13:27:27;3.10;;;0.50;;
22024;SDS011;11176;51.448;6.650;2022-07-06T13:29:54;4.38;;;0.50;;
22024;SDS011;11176;51.448;6.650;2022-07-06T13:32:21;1.65;;;0.30;;
22024;SDS011;11176;51.448;6.650;2022-07-06T13:34:48;1.77;;;0.50;;
22024;SDS011;11176;51.448;6.650;2022-07-06T13:37:15;2.92;;;0.40;;
22024;SDS011;11176;51.448;6.650;2022-07-06T13:39:41;3.90;;;0.50;;
22024;SDS011;11176;51.448;6.650;2022-07-06T13:42:08;1.17;;;0.45;;
22024;SDS011;11176;51.448;6.650;2022-07-06T13:44:35;2.15;;;0.30;;
22024;SDS011;11176;51.448;6.650;2022-07-06T13:47:02;1.38;;;0.32;;
22024;SDS011;11176;51.448;6.650;2022-07-06T13:49:28;1.40;;;0.35;;
22024;SDS011;11176;51.448;6.650;2022-07-06T13:51:57;2.85;;;0.40;;
22024;SDS011;11176;51.448;6.650;2022-07-06T13:54:30;2.60;;;0.40;;
22024;SDS011;11176;51.448;6.650;2022-07-06T13:56:57;5.88;;;0.60;;
22024;SDS011;11176;51.448;6.650;2022-07-06T13:59:24;1.55;;;0.32;;
22024;SDS011;11176;51.448;6.650;2022-07-06T14:01:51;2.80;;;0.60;;
22024;SDS011;11176;51.448;6.650;2022-07-06T14:04:17;1.70;;;0.47;;
22024;SDS011;11176;51.448;6.650;2022-07-06T14:06:44;2.30;;;0.40;;
22024;SDS011;11176;51.448;6.650;2022-07-06T14:09:10;3.95;;;0.40;;
22024;SDS011;11176;51.448;6.650;2022-07-06T14:11:37;1.13;;;0.20;;
22024;SDS011;11176;51.448;6.650;2022-07-06T14:14:04;1.48;;;0.30;;
22024;SDS011;11176;51.448;6.650;2022-07-06T14:16:33;3.67;;;0.50;;
22024;SDS011;11176;51.448;6.650;2022-07-06T14:19:01;1.90;;;0.40;;
22024;SDS011;11176;51.448;6.650;2022-07-06T14:21:28;1.02;;;0.30;;
22024;SDS011;11176;51.448;6.650;2022-07-06T14:23:55;1.67;;;0.35;;
22024;SDS011;11176;51.448;6.650;2022-07-06T14:26:21;2.42;;;0.22;;
22024;SDS011;11176;51.448;6.650;2022-07-06T14:28:48;1.08;;;0.35;;
22024;SDS011;11176;51.448;6.650;2022-07-06T14:31:14;1.50;;;0.20;;
22024;SDS011;11176;51.448;6.650;2022-07-06T14:33:47;3.50;;;0.43;;
22024;SDS011;11176;51.448;6.650;2022-07-06T14:36:14;2.08;;;0.63;;
22024;SDS011;11176;51.448;6.650;2022-07-06T14:38:41;3.17;;;0.40;;
22024;SDS011;11176;51.448;6.650;2022-07-06T14:41:08;1.23;;;0.30;;
22024;SDS011;11176;51.448;6.650;2022-07-06T14:43:34;1.35;;;0.22;;
22024;SDS011;11176;51.448;6.650;2022-07-06T14:46:02;0.70;;;0.20;;
22024;SDS011;11176;51.448;6.650;2022-07-06T14:48:29;1.60;;;0.30;;
22024;SDS011;11176;51.448;6.650;2022-07-06T14:50:56;4.88;;;0.50;;
22024;SDS011;11176;51.448;6.650;2022-07-06T14:53:24;3.80;;;0.40;;
22024;SDS011;11176;51.448;6.650;2022-07-06T14:55:52;1.92;;;0.50;;
22024;SDS011;11176;51.448;6.650;2022-07-06T14:58:19;1.20;;;0.30;;
22024;SDS011;11176;51.448;6.650;2022-07-06T15:00:45;2.92;;;0.40;;
22024;SDS011;11176;51.448;6.650;2022-07-06T15:03:12;3.30;;;0.40;;
22024;SDS011;11176;51.448;6.650;2022-07-06T15:05:39;1.13;;;0.30;;
22024;SDS011;11176;51.448;6.650;2022-07-06T15:08:06;1.60;;;0.38;;
22024;SDS011;11176;51.448;6.650;2022-07-06T15:10:32;1.75;;;0.50;;